createdAt,value
2023-01-19T00:00:58.930Z,7.80
2023-01-19T00:03:26.355Z,7.43
2023-01-19T00:05:53.831Z,6.90
2023-01-19T00:08:21.014Z,7.07
2023-01-19T00:10:53.455Z,7.57
2023-01-19T00:13:20.827Z,7.10
2023-01-19T00:15:48.204Z,6.90
2023-01-19T00:18:16.241Z,7.23
2023-01-19T00:20:46.339Z,7.30
2023-01-19T00:23:14.847Z,7.13
2023-01-19T00:25:44.115Z,7.70
2023-01-19T00:28:13.615Z,6.90
2023-01-19T00:30:42.605Z,7.30
2023-01-19T00:33:11.366Z,7.63
2023-01-19T00:35:38.745Z,7.07
2023-01-19T00:38:05.890Z,6.70
2023-01-19T00:40:33.312Z,7.47
2023-01-19T00:43:01.131Z,6.60
2023-01-19T00:45:28.980Z,6.93
2023-01-19T00:47:58.913Z,7.13
2023-01-19T00:50:28.073Z,8.67
2023-01-19T00:52:56.721Z,7.00
2023-01-19T00:55:24.890Z,7.20
2023-01-19T00:57:52.095Z,7.00
2023-01-19T01:00:20.453Z,6.70
2023-01-19T01:02:49.940Z,7.17
2023-01-19T01:05:18.744Z,7.43
2023-01-19T01:07:47.062Z,7.37
2023-01-19T01:10:19.885Z,7.00
2023-01-19T01:12:54.925Z,7.20
2023-01-19T01:15:34.965Z,6.80
2023-01-19T01:18:02.100Z,6.77
2023-01-19T01:20:30.786Z,6.90
2023-01-19T01:22:58.709Z,7.03
2023-01-19T01:25:28.714Z,7.63
2023-01-19T01:27:56.028Z,8.10
2023-01-19T01:30:24.400Z,7.23
2023-01-19T01:32:51.682Z,6.77
2023-01-19T01:35:18.959Z,7.30
2023-01-19T01:37:46.324Z,7.00
2023-01-19T01:40:17.869Z,6.27
2023-01-19T01:42:45.971Z,7.03
2023-01-19T01:45:33.615Z,6.70
2023-01-19T01:48:06.714Z,6.40
2023-01-19T01:50:38.323Z,7.03
2023-01-19T01:53:14.129Z,6.80
2023-01-19T01:55:49.845Z,6.70
2023-01-19T01:58:17.648Z,7.20
2023-01-19T02:01:03.415Z,5.93
2023-01-19T02:03:32.951Z,6.43
2023-01-19T02:06:04.064Z,6.47
2023-01-19T02:09:14.272Z,6.17
2023-01-19T02:12:01.681Z,6.50
2023-01-19T02:14:28.997Z,5.77
2023-01-19T02:16:56.736Z,5.97
2023-01-19T02:19:41.295Z,5.40
2023-01-19T02:22:36.213Z,5.63
2023-01-19T02:25:05.274Z,5.10
2023-01-19T02:27:33.317Z,5.33
2023-01-19T02:30:03.940Z,5.10
2023-01-19T02:32:31.813Z,6.07
2023-01-19T02:34:59.530Z,5.10
2023-01-19T02:37:30.340Z,5.40
2023-01-19T02:40:01.964Z,5.63
2023-01-19T02:42:50.118Z,5.20
2023-01-19T02:45:23.105Z,4.90
2023-01-19T02:47:52.578Z,4.87
2023-01-19T02:50:43.270Z,4.43
2023-01-19T02:53:21.818Z,4.97
2023-01-19T02:55:58.250Z,4.53
2023-01-19T02:58:45.285Z,5.00
2023-01-19T03:01:21.888Z,4.30
2023-01-19T03:04:01.770Z,4.43
2023-01-19T03:06:40.191Z,4.00
2023-01-19T03:09:41.775Z,4.40
2023-01-19T03:12:32.036Z,4.37
2023-01-19T03:15:05.851Z,3.77
2023-01-19T03:17:34.551Z,3.90
2023-01-19T03:20:05.652Z,4.20
2023-01-19T03:22:33.565Z,4.00
2023-01-19T03:25:03.211Z,4.73
2023-01-19T03:27:34.343Z,4.50
2023-01-19T03:30:19.371Z,4.00
2023-01-19T03:33:08.111Z,4.87
2023-01-19T03:35:40.085Z,4.23
2023-01-19T03:38:13.984Z,4.33
2023-01-19T03:40:42.911Z,4.50
2023-01-19T03:43:11.441Z,4.60
2023-01-19T03:45:40.090Z,4.47
2023-01-19T03:48:08.553Z,4.27
2023-01-19T03:50:35.794Z,4.97
2023-01-19T03:53:09.313Z,4.60
2023-01-19T03:55:38.854Z,4.13
2023-01-19T03:58:06.336Z,4.53
2023-01-19T04:00:34.349Z,4.70
2023-01-19T04:03:01.937Z,4.63
2023-01-19T04:05:29.652Z,4.60
2023-01-19T04:07:57.039Z,4.43
2023-01-19T04:10:25.556Z,4.43
2023-01-19T04:12:59.724Z,4.40
2023-01-19T04:15:28.850Z,4.90
2023-01-19T04:17:58.915Z,4.17
2023-01-19T04:20:28.290Z,4.50
2023-01-19T04:22:59.805Z,4.73
2023-01-19T04:25:28.904Z,4.53
2023-01-19T04:27:58.498Z,4.63
2023-01-19T04:30:27.748Z,4.90
2023-01-19T04:32:56.464Z,4.80
2023-01-19T04:35:24.215Z,5.00
2023-01-19T04:37:51.832Z,4.80
2023-01-19T04:40:19.251Z,4.67
2023-01-19T04:42:46.970Z,4.83
2023-01-19T04:45:14.935Z,4.77
2023-01-19T04:47:44.871Z,4.97
2023-01-19T04:50:12.849Z,5.10
2023-01-19T04:52:40.226Z,4.97
2023-01-19T04:55:08.491Z,6.03
2023-01-19T04:57:35.778Z,5.70
2023-01-19T05:00:04.544Z,5.60
2023-01-19T05:02:31.817Z,5.30
2023-01-19T05:04:59.093Z,5.57
2023-01-19T05:07:26.703Z,6.13
2023-01-19T05:09:54.261Z,7.00
2023-01-19T05:12:22.085Z,7.57
2023-01-19T05:14:49.379Z,8.70
2023-01-19T05:17:16.773Z,9.03
2023-01-19T05:19:44.111Z,11.00
2023-01-19T05:22:11.551Z,8.67
2023-01-19T05:24:38.787Z,8.57
2023-01-19T05:27:06.261Z,9.90
2023-01-19T05:29:34.460Z,11.50
2023-01-19T05:32:01.979Z,10.83
2023-01-19T05:34:29.366Z,11.20
2023-01-19T05:36:56.669Z,13.07
2023-01-19T05:39:24.012Z,7.83
2023-01-19T05:41:51.160Z,8.50
2023-01-19T05:44:18.442Z,10.67
2023-01-19T05:46:45.743Z,8.27
2023-01-19T05:49:13.314Z,7.23
2023-01-19T05:51:45.644Z,6.77
2023-01-19T05:54:18.009Z,8.37
2023-01-19T05:56:45.535Z,8.87
2023-01-19T05:59:13.024Z,8.10
2023-01-19T06:01:40.640Z,8.13
2023-01-19T06:04:08.101Z,7.93
2023-01-19T06:06:35.305Z,7.13
2023-01-19T06:09:02.647Z,8.17
2023-01-19T06:11:30.004Z,7.93
2023-01-19T06:13:57.244Z,8.80
2023-01-19T06:16:24.456Z,8.43
2023-01-19T06:18:51.745Z,7.37
2023-01-19T06:21:19.311Z,8.43
2023-01-19T06:23:46.555Z,7.90
2023-01-19T06:26:14.127Z,9.07
2023-01-19T06:28:41.383Z,9.43
2023-01-19T06:31:09.102Z,11.67
2023-01-19T06:33:36.398Z,11.80
2023-01-19T06:36:03.871Z,9.80
2023-01-19T06:38:31.120Z,10.90
2023-01-19T06:40:59.874Z,10.63
2023-01-19T06:43:27.697Z,10.30
2023-01-19T06:45:56.345Z,9.83
2023-01-19T06:48:24.487Z,9.77
2023-01-19T06:50:51.894Z,11.67
2023-01-19T06:53:22.360Z,9.07
2023-01-19T06:55:49.823Z,10.73
2023-01-19T06:58:17.131Z,9.60
2023-01-19T07:00:44.516Z,10.27
2023-01-19T07:03:20.659Z,11.43
2023-01-19T07:05:51.651Z,9.57
2023-01-19T07:08:18.931Z,9.17
2023-01-19T07:11:24.797Z,8.57
2023-01-19T07:13:34.594Z,8.97
2023-01-19T07:16:10.719Z,8.77
2023-01-19T07:18:40.035Z,8.93
2023-01-19T07:21:07.862Z,8.50
2023-01-19T07:23:35.165Z,8.30
2023-01-19T07:26:02.447Z,10.57
2023-01-19T07:28:31.397Z,9.07
2023-01-19T07:30:58.670Z,11.73
2023-01-19T07:33:26.478Z,9.07
2023-01-19T07:35:54.699Z,9.20
2023-01-19T07:38:22.023Z,9.00
2023-01-19T07:40:49.220Z,7.87
2023-01-19T07:43:16.997Z,9.40
2023-01-19T07:45:45.344Z,7.80
2023-01-19T07:48:12.672Z,7.73
2023-01-19T07:50:39.867Z,8.13
2023-01-19T07:53:12.111Z,8.10
2023-01-19T07:55:39.385Z,7.80
2023-01-19T07:58:07.505Z,7.23
2023-01-19T08:00:36.565Z,9.23
2023-01-19T08:03:05.416Z,9.07
2023-01-19T08:05:34.128Z,7.53
2023-01-19T08:08:01.608Z,6.83
2023-01-19T08:10:29.449Z,6.57
2023-01-19T08:12:57.857Z,6.77
2023-01-19T08:15:26.115Z,8.10
2023-01-19T08:18:01.944Z,9.00
2023-01-19T08:20:30.177Z,6.63
2023-01-19T08:23:01.365Z,5.90
2023-01-19T08:25:42.482Z,5.70
2023-01-19T08:28:10.947Z,6.03
2023-01-19T08:30:39.132Z,6.70
2023-01-19T08:33:09.498Z,6.00
2023-01-19T08:35:50.599Z,5.17
2023-01-19T08:38:17.903Z,5.70
2023-01-19T08:40:45.591Z,5.30
2023-01-19T08:43:15.541Z,5.20
2023-01-19T08:45:48.947Z,4.97
2023-01-19T08:48:18.146Z,5.63
2023-01-19T08:50:49.484Z,6.17
2023-01-19T08:53:21.352Z,6.27
2023-01-19T08:55:48.670Z,4.33
2023-01-19T08:58:16.749Z,4.80
2023-01-19T09:00:44.002Z,4.83
2023-01-19T09:03:13.708Z,4.07
2023-01-19T09:05:42.166Z,4.50
2023-01-19T09:08:12.024Z,4.30
2023-01-19T09:10:44.106Z,3.60
2023-01-19T09:13:12.679Z,3.67
2023-01-19T09:15:41.036Z,3.80
2023-01-19T09:18:12.578Z,4.43
2023-01-19T09:20:42.878Z,5.33
2023-01-19T09:23:11.967Z,4.13
2023-01-19T09:25:41.377Z,4.07
2023-01-19T09:28:11.407Z,3.90
2023-01-19T09:30:40.921Z,3.73
2023-01-19T09:33:11.720Z,4.40
2023-01-19T09:35:40.719Z,4.17
2023-01-19T09:38:09.426Z,4.80
2023-01-19T09:40:55.511Z,4.97
2023-01-19T09:43:34.425Z,5.23
2023-01-19T09:46:17.232Z,6.20
2023-01-19T09:48:46.757Z,5.37
2023-01-19T09:51:17.899Z,5.00
2023-01-19T09:54:17.318Z,5.50
2023-01-19T09:56:46.869Z,4.77
2023-01-19T09:59:25.500Z,5.50
2023-01-19T10:02:11.361Z,4.90
2023-01-19T10:04:42.656Z,6.60
2023-01-19T10:07:31.286Z,4.50
2023-01-19T10:10:24.568Z,4.23
2023-01-19T10:13:17.221Z,4.10
2023-01-19T10:16:20.769Z,5.03
2023-01-19T10:18:51.963Z,4.40
2023-01-19T10:21:25.059Z,4.07
2023-01-19T10:24:00.208Z,4.00
2023-01-19T10:26:53.459Z,4.50
2023-01-19T10:29:22.829Z,4.13
2023-01-19T10:31:53.211Z,4.70
2023-01-19T10:34:23.547Z,4.63
2023-01-19T10:36:57.867Z,4.00
2023-01-19T10:39:25.183Z,4.00
2023-01-19T10:41:53.764Z,4.47
2023-01-19T10:44:30.004Z,3.93
2023-01-19T10:47:00.383Z,3.87
2023-01-19T10:49:28.999Z,3.77
2023-01-19T10:51:59.127Z,4.13
2023-01-19T10:54:28.359Z,4.13
2023-01-19T10:57:04.554Z,3.73
2023-01-19T10:59:49.855Z,4.10
2023-01-19T11:02:29.868Z,4.10
2023-01-19T11:05:00.676Z,4.07
2023-01-19T11:07:35.413Z,4.20
2023-01-19T11:10:27.102Z,4.17
2023-01-19T11:13:12.789Z,6.43
2023-01-19T11:15:54.228Z,8.57
2023-01-19T11:18:39.787Z,6.83
2023-01-19T11:21:17.420Z,4.63
2023-01-19T11:23:53.878Z,4.70
2023-01-19T11:26:33.508Z,4.20
2023-01-19T11:29:03.370Z,3.90
2023-01-19T11:31:31.635Z,4.17
2023-01-19T11:34:04.995Z,4.20
2023-01-19T11:36:35.687Z,4.80
2023-01-19T11:39:23.926Z,4.37
2023-01-19T11:41:55.291Z,4.17
2023-01-19T11:44:33.111Z,4.37
2023-01-19T11:47:03.609Z,4.10
2023-01-19T11:49:55.869Z,4.10
2023-01-19T11:52:43.234Z,4.33
2023-01-19T11:55:45.724Z,4.70
2023-01-19T11:58:18.303Z,3.87
2023-01-19T12:01:14.585Z,4.20
2023-01-19T12:04:03.338Z,4.57
2023-01-19T12:06:44.741Z,3.70
2023-01-19T12:09:28.498Z,4.60
2023-01-19T12:11:58.204Z,5.07
2023-01-19T12:14:38.480Z,8.97
2023-01-19T12:17:11.526Z,9.77
2023-01-19T12:19:54.979Z,14.77
2023-01-19T12:22:24.166Z,18.03
2023-01-19T12:25:06.453Z,5.53
2023-01-19T12:27:41.074Z,4.53
2023-01-19T12:30:22.697Z,5.00
2023-01-19T12:32:51.446Z,9.57
2023-01-19T12:35:57.218Z,9.23
2023-01-19T12:38:47.703Z,4.93
2023-01-19T12:41:41.091Z,4.73
2023-01-19T12:44:16.404Z,4.60
2023-01-19T12:46:53.083Z,4.90
2023-01-19T12:49:55.318Z,4.10
2023-01-19T12:52:36.175Z,3.43
2023-01-19T12:55:15.662Z,3.47
2023-01-19T12:58:03.246Z,5.10
2023-01-19T13:00:34.828Z,4.00
2023-01-19T13:03:28.071Z,3.53
2023-01-19T13:05:56.856Z,4.90
2023-01-19T13:08:42.439Z,5.40
2023-01-19T13:11:19.739Z,3.20
2023-01-19T13:13:50.079Z,6.03
2023-01-19T13:16:20.572Z,5.40
2023-01-19T13:18:50.876Z,3.03
2023-01-19T13:21:43.604Z,5.30
2023-01-19T13:24:17.756Z,8.47
2023-01-19T13:26:51.919Z,2.90
2023-01-19T13:29:37.531Z,3.23
2023-01-19T13:32:19.570Z,3.00
2023-01-19T13:34:53.638Z,2.43
2023-01-19T13:37:26.332Z,2.70
2023-01-19T13:39:55.716Z,3.77
2023-01-19T13:42:38.252Z,2.53
2023-01-19T13:45:33.557Z,2.90
2023-01-19T13:48:04.764Z,3.10
2023-01-19T13:50:35.393Z,2.87
2023-01-19T13:53:04.770Z,2.93
2023-01-19T13:55:32.232Z,3.50
2023-01-19T13:57:59.559Z,2.87
2023-01-19T14:00:29.184Z,3.40
2023-01-19T14:02:59.693Z,3.53
2023-01-19T14:05:39.058Z,3.97
2023-01-19T14:08:11.413Z,4.23
2023-01-19T14:10:47.869Z,6.97
2023-01-19T14:13:19.703Z,8.70
2023-01-19T14:15:49.676Z,7.23
2023-01-19T14:18:16.889Z,9.80
2023-01-19T14:21:12.041Z,7.90
2023-01-19T14:23:49.318Z,6.50
2023-01-19T14:27:08.082Z,7.17
2023-01-19T14:29:38.089Z,4.00
2023-01-19T14:32:14.134Z,3.87
2023-01-19T14:34:47.951Z,4.70
2023-01-19T14:37:47.338Z,6.43
2023-01-19T14:40:19.938Z,3.00
2023-01-19T14:42:54.815Z,3.90
2023-01-19T14:45:33.432Z,5.40
2023-01-19T14:48:18.193Z,4.97
2023-01-19T14:51:02.001Z,4.97
2023-01-19T14:53:37.006Z,4.97
2023-01-19T14:56:07.401Z,3.30
2023-01-19T14:58:36.393Z,5.70
2023-01-19T15:01:04.809Z,5.97
2023-01-19T15:03:46.004Z,4.07
2023-01-19T15:06:20.736Z,4.93
2023-01-19T15:08:50.565Z,3.90
2023-01-19T15:11:35.475Z,6.93
2023-01-19T15:14:03.221Z,12.03
2023-01-19T15:16:34.383Z,5.53
2023-01-19T15:19:01.797Z,3.73
2023-01-19T15:21:29.122Z,4.03
2023-01-19T15:23:58.308Z,11.50
2023-01-19T15:26:27.341Z,14.07
2023-01-19T15:28:56.778Z,5.97
2023-01-19T15:31:26.343Z,6.77
2023-01-19T15:33:54.459Z,6.53
2023-01-19T15:36:22.544Z,8.47
2023-01-19T15:38:51.287Z,7.23
2023-01-19T15:41:30.197Z,13.53
2023-01-19T15:43:57.897Z,8.27
2023-01-19T15:46:26.445Z,4.67
2023-01-19T15:48:54.498Z,5.17
2023-01-19T15:51:26.139Z,4.43
2023-01-19T15:53:54.810Z,4.73
2023-01-19T15:56:27.460Z,4.70
2023-01-19T15:58:55.977Z,10.43
2023-01-19T16:01:31.546Z,14.37
2023-01-19T16:04:01.593Z,16.77
2023-01-19T16:06:30.240Z,17.97
2023-01-19T16:09:01.466Z,9.30
2023-01-19T16:11:34.441Z,3.83
2023-01-19T16:14:01.824Z,7.50
2023-01-19T16:16:29.575Z,3.80
2023-01-19T16:18:58.229Z,3.80
2023-01-19T16:21:25.773Z,3.70
2023-01-19T16:23:54.823Z,4.30
2023-01-19T16:26:30.071Z,4.90
2023-01-19T16:29:10.012Z,3.50
2023-01-19T16:31:38.963Z,6.27
2023-01-19T16:34:06.964Z,3.90
2023-01-19T16:36:36.402Z,3.80
2023-01-19T16:39:10.731Z,3.40
2023-01-19T16:41:38.381Z,4.20
2023-01-19T16:44:06.957Z,4.63
2023-01-19T16:46:37.001Z,4.60
2023-01-19T16:49:06.852Z,4.63
2023-01-19T16:51:34.427Z,3.93
2023-01-19T16:54:01.843Z,3.80
2023-01-19T16:56:29.570Z,4.53
2023-01-19T16:58:58.527Z,6.30
2023-01-19T17:01:28.998Z,6.07
2023-01-19T17:03:57.052Z,4.63
2023-01-19T17:06:25.452Z,4.43
2023-01-19T17:08:53.758Z,5.33
2023-01-19T17:11:23.944Z,5.90
2023-01-19T17:13:57.137Z,5.90
2023-01-19T17:16:25.289Z,6.47
2023-01-19T17:18:53.980Z,6.63
2023-01-19T17:21:21.307Z,5.70
2023-01-19T17:23:50.259Z,6.80
2023-01-19T17:26:18.322Z,7.77
2023-01-19T17:28:46.272Z,9.07
2023-01-19T17:31:21.971Z,11.77
2023-01-19T17:33:50.900Z,10.23
2023-01-19T17:36:22.527Z,9.30
2023-01-19T17:38:51.057Z,8.80
2023-01-19T17:41:25.637Z,9.37
2023-01-19T17:43:53.413Z,10.50
2023-01-19T17:46:23.924Z,17.37
2023-01-19T17:48:59.752Z,24.57
2023-01-19T17:51:29.662Z,24.37
2023-01-19T17:53:58.518Z,12.50
2023-01-19T17:56:30.131Z,12.60
2023-01-19T17:58:59.639Z,10.47
2023-01-19T18:01:30.062Z,8.87
2023-01-19T18:03:59.050Z,8.83
2023-01-19T18:06:26.334Z,8.40
2023-01-19T18:08:54.506Z,7.60
2023-01-19T18:11:22.390Z,8.03
2023-01-19T18:13:51.326Z,8.00
2023-01-19T18:16:29.754Z,8.10
2023-01-19T18:18:57.632Z,8.33
2023-01-19T18:21:28.417Z,8.60
2023-01-19T18:24:01.770Z,8.13
2023-01-19T18:26:30.825Z,7.13
2023-01-19T18:28:59.069Z,7.47
2023-01-19T18:31:28.714Z,7.73
2023-01-19T18:33:56.204Z,9.90
2023-01-19T18:36:23.588Z,8.77
2023-01-19T18:38:51.377Z,8.37
2023-01-19T18:41:20.996Z,8.60
2023-01-19T18:43:49.437Z,9.27
2023-01-19T18:46:17.344Z,8.17
2023-01-19T18:48:45.128Z,7.50
2023-01-19T18:51:15.474Z,7.93
2023-01-19T18:53:44.270Z,8.27
2023-01-19T18:56:16.421Z,9.53
2023-01-19T18:58:44.878Z,12.47
2023-01-19T19:01:31.551Z,11.17
2023-01-19T19:04:00.505Z,11.17
2023-01-19T19:06:28.346Z,10.53
2023-01-19T19:08:57.747Z,13.87
2023-01-19T19:11:26.765Z,12.73
2023-01-19T19:13:59.562Z,12.00
2023-01-19T19:16:28.845Z,10.20
2023-01-19T19:18:56.158Z,10.90
2023-01-19T19:21:25.682Z,14.23
2023-01-19T19:23:55.200Z,8.90
2023-01-19T19:26:24.096Z,7.03
2023-01-19T19:28:51.519Z,7.30
2023-01-19T19:31:21.077Z,7.50
2023-01-19T19:33:51.105Z,7.30
2023-01-19T19:36:20.296Z,6.47
2023-01-19T19:38:49.489Z,6.57
2023-01-19T19:41:23.021Z,5.83
2023-01-19T19:43:50.890Z,6.57
2023-01-19T19:46:20.295Z,7.03
2023-01-19T19:48:51.633Z,7.37
2023-01-19T19:51:25.833Z,7.63
2023-01-19T19:53:59.014Z,8.40
2023-01-19T19:56:31.560Z,8.60
2023-01-19T19:58:59.834Z,8.97
2023-01-19T20:01:32.898Z,8.87
2023-01-19T20:04:06.901Z,9.07
2023-01-19T20:06:38.978Z,8.33
2023-01-19T20:09:10.944Z,8.73
2023-01-19T20:11:38.739Z,8.43
2023-01-19T20:14:11.117Z,8.40
2023-01-19T20:16:39.697Z,8.57
2023-01-19T20:19:07.192Z,8.03
2023-01-19T20:21:36.898Z,8.50
2023-01-19T20:24:12.779Z,7.93
2023-01-19T20:26:43.022Z,8.13
2023-01-19T20:29:11.932Z,9.10
2023-01-19T20:31:44.343Z,8.83
2023-01-19T20:34:15.904Z,9.80
2023-01-19T20:36:47.136Z,9.40
2023-01-19T20:39:14.445Z,8.27
2023-01-19T20:41:45.451Z,8.17
2023-01-19T20:44:16.757Z,7.17
2023-01-19T20:46:44.246Z,7.40
2023-01-19T20:49:11.749Z,7.20
2023-01-19T20:51:43.543Z,6.90
2023-01-19T20:54:15.644Z,7.23
2023-01-19T20:56:43.045Z,7.33
2023-01-19T20:59:12.231Z,7.63
2023-01-19T21:01:40.996Z,7.07
2023-01-19T21:04:08.845Z,6.90
2023-01-19T21:06:36.913Z,7.43
2023-01-19T21:09:05.516Z,8.00
2023-01-19T21:11:33.089Z,8.00
2023-01-19T21:14:00.375Z,7.80
2023-01-19T21:16:31.883Z,8.57
2023-01-19T21:18:59.775Z,7.67
2023-01-19T21:21:31.727Z,9.47
2023-01-19T21:24:01.537Z,9.80
2023-01-19T21:26:30.449Z,9.80
2023-01-19T21:29:01.963Z,9.33
2023-01-19T21:31:30.349Z,10.07
2023-01-19T21:33:58.213Z,10.73
2023-01-19T21:36:26.428Z,8.87
2023-01-19T21:39:00.493Z,8.73
2023-01-19T21:41:30.363Z,8.20
2023-01-19T21:43:58.727Z,7.03
2023-01-19T21:46:29.470Z,7.37
2023-01-19T21:49:02.044Z,7.67
2023-01-19T21:51:33.662Z,6.80
2023-01-19T21:54:02.060Z,6.63
2023-01-19T21:56:30.838Z,6.93
2023-01-19T21:59:02.308Z,7.57
2023-01-19T22:01:31.537Z,8.23
2023-01-19T22:03:59.348Z,7.63
2023-01-19T22:06:27.771Z,8.53
2023-01-19T22:08:58.698Z,8.50
2023-01-19T22:11:26.143Z,8.20
2023-01-19T22:13:54.785Z,8.17
2023-01-19T22:16:23.616Z,7.90
2023-01-19T22:18:59.703Z,8.10
2023-01-19T22:21:36.212Z,8.60
2023-01-19T22:24:05.515Z,8.33
2023-01-19T22:26:34.602Z,7.87
2023-01-19T22:29:04.332Z,8.40
2023-01-19T22:31:31.676Z,9.73
2023-01-19T22:33:59.725Z,9.13
2023-01-19T22:36:31.957Z,9.77
2023-01-19T22:39:01.608Z,10.00
2023-01-19T22:41:40.991Z,10.00
2023-01-19T22:44:17.117Z,10.97
2023-01-19T22:46:44.885Z,12.30
2023-01-19T22:49:14.706Z,13.07
2023-01-19T22:51:42.636Z,13.47
2023-01-19T22:54:11.142Z,13.50
2023-01-19T22:56:39.569Z,13.50
2023-01-19T22:59:07.643Z,13.63
2023-01-19T23:01:41.104Z,13.20
2023-01-19T23:04:11.830Z,15.53
2023-01-19T23:06:39.256Z,15.23
2023-01-19T23:09:10.552Z,14.70
2023-01-19T23:11:40.687Z,15.03
2023-01-19T23:14:12.036Z,15.03
2023-01-19T23:16:39.190Z,15.03
2023-01-19T23:19:06.436Z,15.17
2023-01-19T23:21:34.609Z,15.97
2023-01-19T23:24:04.484Z,15.20
2023-01-19T23:26:38.335Z,15.27
2023-01-19T23:29:14.285Z,14.83
2023-01-19T23:31:47.509Z,15.00
2023-01-19T23:34:15.395Z,17.13
2023-01-19T23:36:43.987Z,14.63
2023-01-19T23:39:18.299Z,15.57
2023-01-19T23:41:46.147Z,14.47
2023-01-19T23:44:14.051Z,14.87
2023-01-19T23:46:41.926Z,15.23
2023-01-19T23:49:09.150Z,16.50
2023-01-19T23:51:36.634Z,15.63
2023-01-19T23:54:03.957Z,13.83
2023-01-19T23:56:33.867Z,13.77
2023-01-19T23:59:04.298Z,13.23
